sensor_id;sensor_type;location;lat;lon;timestamp;temperature;humidity
55083;DHT22;40978;52.850;6.506;2022-12-20T00:01:10;8.90;99.90
55083;DHT22;40978;52.850;6.506;2022-12-20T00:03:37;8.90;99.90
55083;DHT22;40978;52.850;6.506;2022-12-20T00:06:03;8.80;99.90
55083;DHT22;40978;52.850;6.506;2022-12-20T00:08:29;8.80;99.90
55083;DHT22;40978;52.850;6.506;2022-12-20T00:10:56;8.80;99.90
55083;DHT22;40978;52.850;6.506;2022-12-20T00:13:24;8.80;99.90
55083;DHT22;40978;52.850;6.506;2022-12-20T00:15:49;8.90;99.90
55083;DHT22;40978;52.850;6.506;2022-12-20T00:18:15;8.80;99.90
55083;DHT22;40978;52.850;6.506;2022-12-20T00:20:41;8.90;99.90
55083;DHT22;40978;52.850;6.506;2022-12-20T00:23:06;8.90;99.90
55083;DHT22;40978;52.850;6.506;2022-12-20T00:25:32;8.90;99.90
55083;DHT22;40978;52.850;6.506;2022-12-20T00:27:58;8.90;99.90
55083;DHT22;40978;52.850;6.506;2022-12-20T00:30:23;9.00;99.90
55083;DHT22;40978;52.850;6.506;2022-12-20T00:32:49;9.00;99.90
55083;DHT22;40978;52.850;6.506;2022-12-20T00:35:15;9.00;99.90
55083;DHT22;40978;52.850;6.506;2022-12-20T00:37:40;9.00;99.90
55083;DHT22;40978;52.850;6.506;2022-12-20T00:40:07;9.00;99.90
55083;DHT22;40978;52.850;6.506;2022-12-20T00:42:33;9.10;99.90
55083;DHT22;40978;52.850;6.506;2022-12-20T00:44:58;9.10;99.90
55083;DHT22;40978;52.850;6.506;2022-12-20T00:47:24;9.10;99.90
55083;DHT22;40978;52.850;6.506;2022-12-20T00:49:50;9.10;99.90
55083;DHT22;40978;52.850;6.506;2022-12-20T00:52:15;9.10;99.90
55083;DHT22;40978;52.850;6.506;2022-12-20T00:54:41;9.10;99.90
55083;DHT22;40978;52.850;6.506;2022-12-20T00:57:07;9.10;99.90
55083;DHT22;40978;52.850;6.506;2022-12-20T00:59:33;9.20;99.90
55083;DHT22;40978;52.850;6.506;2022-12-20T01:01:58;9.10;99.90
55083;DHT22;40978;52.850;6.506;2022-12-20T01:04:24;9.10;99.90
55083;DHT22;40978;52.850;6.506;2022-12-20T01:06:50;9.10;99.90
55083;DHT22;40978;52.850;6.506;2022-12-20T01:09:16;9.10;99.90
55083;DHT22;40978;52.850;6.506;2022-12-20T01:11:41;9.10;99.90
55083;DHT22;40978;52.850;6.506;2022-12-20T01:14:12;9.10;99.90
55083;DHT22;40978;52.850;6.506;2022-12-20T01:16:40;9.10;99.90
55083;DHT22;40978;52.850;6.506;2022-12-20T01:19:07;9.10;99.90
55083;DHT22;40978;52.850;6.506;2022-12-20T01:21:34;9.00;99.90
55083;DHT22;40978;52.850;6.506;2022-12-20T01:23:59;9.00;99.90
55083;DHT22;40978;52.850;6.506;2022-12-20T01:26:27;9.00;99.90
55083;DHT22;40978;52.850;6.506;2022-12-20T01:28:58;9.00;99.90
55083;DHT22;40978;52.850;6.506;2022-12-20T01:31:25;9.00;99.90
55083;DHT22;40978;52.850;6.506;2022-12-20T01:33:51;9.00;99.90
55083;DHT22;40978;52.850;6.506;2022-12-20T01:36:25;9.00;99.90
55083;DHT22;40978;52.850;6.506;2022-12-20T01:39:06;9.10;99.90
55083;DHT22;40978;52.850;6.506;2022-12-20T01:41:34;9.10;99.90
55083;DHT22;40978;52.850;6.506;2022-12-20T01:44:05;9.00;99.90
55083;DHT22;40978;52.850;6.506;2022-12-20T01:46:34;9.00;99.90
55083;DHT22;40978;52.850;6.506;2022-12-20T01:51:31;9.00;99.90
55083;DHT22;40978;52.850;6.506;2022-12-20T01:54:14;9.00;99.90
55083;DHT22;40978;52.850;6.506;2022-12-20T01:56:44;9.00;99.90
55083;DHT22;40978;52.850;6.506;2022-12-20T01:59:12;9.00;99.90
55083;DHT22;40978;52.850;6.506;2022-12-20T02:01:39;9.00;99.90
55083;DHT22;40978;52.850;6.506;2022-12-20T02:04:06;9.10;99.90
55083;DHT22;40978;52.850;6.506;2022-12-20T02:06:31;9.10;99.90
55083;DHT22;40978;52.850;6.506;2022-12-20T02:08:58;9.10;99.90
55083;DHT22;40978;52.850;6.506;2022-12-20T02:11:35;9.10;99.90
55083;DHT22;40978;52.850;6.506;2022-12-20T02:17:14;9.20;99.90
55083;DHT22;40978;52.850;6.506;2022-12-20T02:20:00;9.20;99.90
55083;DHT22;40978;52.850;6.506;2022-12-20T02:30:49;9.30;99.90
55083;DHT22;40978;52.850;6.506;2022-12-20T02:33:18;9.30;99.90
55083;DHT22;40978;52.850;6.506;2022-12-20T02:35:45;9.30;99.90
55083;DHT22;40978;52.850;6.506;2022-12-20T02:38:33;9.40;99.90
55083;DHT22;40978;52.850;6.506;2022-12-20T02:43:34;9.40;99.90
55083;DHT22;40978;52.850;6.506;2022-12-20T02:46:23;9.30;99.90
55083;DHT22;40978;52.850;6.506;2022-12-20T02:48:51;9.30;99.90
55083;DHT22;40978;52.850;6.506;2022-12-20T02:51:19;9.30;99.90
55083;DHT22;40978;52.850;6.506;2022-12-20T02:53:46;9.30;99.90
55083;DHT22;40978;52.850;6.506;2022-12-20T02:56:28;9.20;99.90
55083;DHT22;40978;52.850;6.506;2022-12-20T02:59:16;9.20;99.90
55083;DHT22;40978;52.850;6.506;2022-12-20T03:01:54;9.10;99.90
55083;DHT22;40978;52.850;6.506;2022-12-20T03:04:24;9.20;99.90
55083;DHT22;40978;52.850;6.506;2022-12-20T03:06:59;9.10;99.90
55083;DHT22;40978;52.850;6.506;2022-12-20T03:09:27;9.20;99.90
55083;DHT22;40978;52.850;6.506;2022-12-20T03:11:54;9.10;99.90
55083;DHT22;40978;52.850;6.506;2022-12-20T03:14:20;9.10;99.90
55083;DHT22;40978;52.850;6.506;2022-12-20T03:16:46;9.10;99.90
55083;DHT22;40978;52.850;6.506;2022-12-20T03:19:12;9.10;99.90
55083;DHT22;40978;52.850;6.506;2022-12-20T03:21:38;9.20;99.90
55083;DHT22;40978;52.850;6.506;2022-12-20T03:24:04;9.20;99.90
55083;DHT22;40978;52.850;6.506;2022-12-20T03:26:29;9.20;99.90
55083;DHT22;40978;52.850;6.506;2022-12-20T03:28:55;9.20;99.90
55083;DHT22;40978;52.850;6.506;2022-12-20T03:31:21;9.20;99.90
55083;DHT22;40978;52.850;6.506;2022-12-20T03:33:47;9.10;99.90
55083;DHT22;40978;52.850;6.506;2022-12-20T03:36:13;9.20;99.90
55083;DHT22;40978;52.850;6.506;2022-12-20T03:38:39;9.10;99.90
55083;DHT22;40978;52.850;6.506;2022-12-20T03:41:04;9.20;99.90
55083;DHT22;40978;52.850;6.506;2022-12-20T03:43:30;9.20;99.90
55083;DHT22;40978;52.850;6.506;2022-12-20T03:45:57;9.10;99.90
55083;DHT22;40978;52.850;6.506;2022-12-20T03:48:22;9.20;99.90
55083;DHT22;40978;52.850;6.506;2022-12-20T03:50:48;9.20;99.90
55083;DHT22;40978;52.850;6.506;2022-12-20T03:53:14;9.10;99.90
55083;DHT22;40978;52.850;6.506;2022-12-20T03:55:40;9.10;99.90
55083;DHT22;40978;52.850;6.506;2022-12-20T03:58:06;9.20;99.90
55083;DHT22;40978;52.850;6.506;2022-12-20T04:00:32;9.10;99.90
55083;DHT22;40978;52.850;6.506;2022-12-20T04:02:58;9.10;99.90
55083;DHT22;40978;52.850;6.506;2022-12-20T04:05:23;9.10;99.90
55083;DHT22;40978;52.850;6.506;2022-12-20T04:07:49;9.10;99.90
55083;DHT22;40978;52.850;6.506;2022-12-20T04:10:15;9.20;99.90
55083;DHT22;40978;52.850;6.506;2022-12-20T04:12:40;9.20;99.90
55083;DHT22;40978;52.850;6.506;2022-12-20T04:15:07;9.20;99.90
55083;DHT22;40978;52.850;6.506;2022-12-20T04:17:33;9.20;99.90
55083;DHT22;40978;52.850;6.506;2022-12-20T04:19:58;9.20;99.90
55083;DHT22;40978;52.850;6.506;2022-12-20T04:22:46;9.20;99.90
55083;DHT22;40978;52.850;6.506;2022-12-20T04:25:13;9.20;99.90
55083;DHT22;40978;52.850;6.506;2022-12-20T04:27:38;9.20;99.90
55083;DHT22;40978;52.850;6.506;2022-12-20T04:30:05;9.20;99.90
55083;DHT22;40978;52.850;6.506;2022-12-20T04:32:30;9.30;99.90
55083;DHT22;40978;52.850;6.506;2022-12-20T04:34:56;9.30;99.90
55083;DHT22;40978;52.850;6.506;2022-12-20T04:37:22;9.20;99.90
55083;DHT22;40978;52.850;6.506;2022-12-20T04:39:47;9.20;99.90
55083;DHT22;40978;52.850;6.506;2022-12-20T04:42:13;9.30;99.90
55083;DHT22;40978;52.850;6.506;2022-12-20T04:44:39;9.30;99.90
55083;DHT22;40978;52.850;6.506;2022-12-20T04:47:04;9.30;99.90
55083;DHT22;40978;52.850;6.506;2022-12-20T04:49:30;9.30;99.90
55083;DHT22;40978;52.850;6.506;2022-12-20T04:51:56;9.30;99.90
55083;DHT22;40978;52.850;6.506;2022-12-20T04:54:41;9.30;99.90
55083;DHT22;40978;52.850;6.506;2022-12-20T04:57:07;9.40;99.90
55083;DHT22;40978;52.850;6.506;2022-12-20T04:59:34;9.40;99.90
55083;DHT22;40978;52.850;6.506;2022-12-20T05:02:00;9.50;99.90
55083;DHT22;40978;52.850;6.506;2022-12-20T05:04:26;9.50;99.90
55083;DHT22;40978;52.850;6.506;2022-12-20T05:06:52;9.50;99.90
55083;DHT22;40978;52.850;6.506;2022-12-20T05:09:17;9.60;99.90
55083;DHT22;40978;52.850;6.506;2022-12-20T05:11:43;9.60;99.90
55083;DHT22;40978;52.850;6.506;2022-12-20T05:14:09;9.60;99.90
55083;DHT22;40978;52.850;6.506;2022-12-20T05:16:35;9.60;99.90
55083;DHT22;40978;52.850;6.506;2022-12-20T05:19:02;9.60;99.90
55083;DHT22;40978;52.850;6.506;2022-12-20T05:21:29;9.70;99.90
55083;DHT22;40978;52.850;6.506;2022-12-20T05:24:13;9.70;99.90
55083;DHT22;40978;52.850;6.506;2022-12-20T05:27:00;9.70;99.90
55083;DHT22;40978;52.850;6.506;2022-12-20T05:29:29;9.70;99.90
55083;DHT22;40978;52.850;6.506;2022-12-20T05:32:04;9.80;99.90
55083;DHT22;40978;52.850;6.506;2022-12-20T05:34:35;9.80;99.90
55083;DHT22;40978;52.850;6.506;2022-12-20T05:37:00;9.80;99.90
55083;DHT22;40978;52.850;6.506;2022-12-20T05:39:26;9.80;99.90
55083;DHT22;40978;52.850;6.506;2022-12-20T05:41:52;9.80;99.90
55083;DHT22;40978;52.850;6.506;2022-12-20T05:44:18;9.80;99.90
55083;DHT22;40978;52.850;6.506;2022-12-20T05:46:44;9.80;99.90
55083;DHT22;40978;52.850;6.506;2022-12-20T05:49:10;9.80;99.90
55083;DHT22;40978;52.850;6.506;2022-12-20T05:51:36;9.80;99.90
55083;DHT22;40978;52.850;6.506;2022-12-20T05:54:01;9.70;99.90
55083;DHT22;40978;52.850;6.506;2022-12-20T05:56:27;9.70;99.90
55083;DHT22;40978;52.850;6.506;2022-12-20T05:58:53;9.80;99.90
55083;DHT22;40978;52.850;6.506;2022-12-20T06:01:18;9.70;99.90
55083;DHT22;40978;52.850;6.506;2022-12-20T06:03:44;9.70;99.90
55083;DHT22;40978;52.850;6.506;2022-12-20T06:06:10;9.70;99.90
55083;DHT22;40978;52.850;6.506;2022-12-20T06:08:36;9.70;99.90
55083;DHT22;40978;52.850;6.506;2022-12-20T06:11:02;9.70;99.90
55083;DHT22;40978;52.850;6.506;2022-12-20T06:13:29;9.80;99.90
55083;DHT22;40978;52.850;6.506;2022-12-20T06:15:55;9.80;99.90
55083;DHT22;40978;52.850;6.506;2022-12-20T06:18:21;9.90;99.90
55083;DHT22;40978;52.850;6.506;2022-12-20T06:20:51;9.90;99.90
55083;DHT22;40978;52.850;6.506;2022-12-20T06:23:17;10.00;99.90
55083;DHT22;40978;52.850;6.506;2022-12-20T06:25:42;10.00;99.90
55083;DHT22;40978;52.850;6.506;2022-12-20T06:28:09;10.00;99.90
55083;DHT22;40978;52.850;6.506;2022-12-20T06:30:35;10.00;99.90
55083;DHT22;40978;52.850;6.506;2022-12-20T06:33:01;10.10;99.90
55083;DHT22;40978;52.850;6.506;2022-12-20T06:35:27;10.10;99.90
55083;DHT22;40978;52.850;6.506;2022-12-20T06:37:53;10.10;99.90
55083;DHT22;40978;52.850;6.506;2022-12-20T06:40:19;10.10;99.90
55083;DHT22;40978;52.850;6.506;2022-12-20T06:42:44;10.10;99.90
55083;DHT22;40978;52.850;6.506;2022-12-20T06:45:11;10.10;99.90
55083;DHT22;40978;52.850;6.506;2022-12-20T06:47:36;10.10;99.90
55083;DHT22;40978;52.850;6.506;2022-12-20T06:50:03;10.10;99.90
55083;DHT22;40978;52.850;6.506;2022-12-20T06:52:29;10.10;99.90
55083;DHT22;40978;52.850;6.506;2022-12-20T06:54:58;10.10;99.90
55083;DHT22;40978;52.850;6.506;2022-12-20T06:57:24;10.00;99.90
55083;DHT22;40978;52.850;6.506;2022-12-20T06:59:49;10.10;99.90
55083;DHT22;40978;52.850;6.506;2022-12-20T07:02:15;10.10;99.90
55083;DHT22;40978;52.850;6.506;2022-12-20T07:04:41;10.10;99.90
55083;DHT22;40978;52.850;6.506;2022-12-20T07:07:07;10.10;99.90
55083;DHT22;40978;52.850;6.506;2022-12-20T07:09:33;10.10;99.90
55083;DHT22;40978;52.850;6.506;2022-12-20T07:11:59;10.10;99.90
55083;DHT22;40978;52.850;6.506;2022-12-20T07:14:25;10.10;99.90
55083;DHT22;40978;52.850;6.506;2022-12-20T07:16:50;10.20;99.90
55083;DHT22;40978;52.850;6.506;2022-12-20T07:19:16;10.10;99.90
55083;DHT22;40978;52.850;6.506;2022-12-20T07:21:42;10.10;99.90
55083;DHT22;40978;52.850;6.506;2022-12-20T07:24:08;10.00;99.90
55083;DHT22;40978;52.850;6.506;2022-12-20T07:26:34;10.10;99.90
55083;DHT22;40978;52.850;6.506;2022-12-20T07:29:00;10.10;99.90
55083;DHT22;40978;52.850;6.506;2022-12-20T07:31:26;10.10;99.90
55083;DHT22;40978;52.850;6.506;2022-12-20T07:33:52;10.10;99.90
55083;DHT22;40978;52.850;6.506;2022-12-20T07:36:18;10.10;99.90
55083;DHT22;40978;52.850;6.506;2022-12-20T07:38:44;10.10;99.90
55083;DHT22;40978;52.850;6.506;2022-12-20T07:41:12;10.00;99.90
55083;DHT22;40978;52.850;6.506;2022-12-20T07:43:38;10.00;99.90
55083;DHT22;40978;52.850;6.506;2022-12-20T07:46:05;10.00;99.90
55083;DHT22;40978;52.850;6.506;2022-12-20T07:48:32;10.10;99.90
55083;DHT22;40978;52.850;6.506;2022-12-20T07:51:09;10.00;99.90
55083;DHT22;40978;52.850;6.506;2022-12-20T07:53:51;10.10;99.90
55083;DHT22;40978;52.850;6.506;2022-12-20T07:56:20;10.10;99.90
55083;DHT22;40978;52.850;6.506;2022-12-20T07:58:46;10.00;99.90
55083;DHT22;40978;52.850;6.506;2022-12-20T08:01:13;10.10;99.90
55083;DHT22;40978;52.850;6.506;2022-12-20T08:03:43;10.10;99.90
55083;DHT22;40978;52.850;6.506;2022-12-20T08:06:09;10.10;99.90
55083;DHT22;40978;52.850;6.506;2022-12-20T08:08:38;10.10;99.90
55083;DHT22;40978;52.850;6.506;2022-12-20T08:11:06;10.20;99.90
55083;DHT22;40978;52.850;6.506;2022-12-20T08:13:33;10.10;99.90
55083;DHT22;40978;52.850;6.506;2022-12-20T08:15:59;10.20;99.90
55083;DHT22;40978;52.850;6.506;2022-12-20T08:18:25;10.20;99.90
55083;DHT22;40978;52.850;6.506;2022-12-20T08:20:51;10.20;99.90
55083;DHT22;40978;52.850;6.506;2022-12-20T08:23:17;10.30;99.90
55083;DHT22;40978;52.850;6.506;2022-12-20T08:25:44;10.30;99.90
55083;DHT22;40978;52.850;6.506;2022-12-20T08:28:10;10.30;99.90
55083;DHT22;40978;52.850;6.506;2022-12-20T08:30:36;10.30;99.90
55083;DHT22;40978;52.850;6.506;2022-12-20T08:33:02;10.30;99.90
55083;DHT22;40978;52.850;6.506;2022-12-20T08:35:27;10.30;99.90
55083;DHT22;40978;52.850;6.506;2022-12-20T08:37:53;10.30;99.90
55083;DHT22;40978;52.850;6.506;2022-12-20T08:40:19;10.40;99.90
55083;DHT22;40978;52.850;6.506;2022-12-20T08:42:45;10.40;99.90
55083;DHT22;40978;52.850;6.506;2022-12-20T08:45:11;10.30;99.90
55083;DHT22;40978;52.850;6.506;2022-12-20T08:47:37;10.30;99.90
55083;DHT22;40978;52.850;6.506;2022-12-20T08:50:03;10.30;99.90
55083;DHT22;40978;52.850;6.506;2022-12-20T08:52:29;10.30;99.90
55083;DHT22;40978;52.850;6.506;2022-12-20T08:54:55;10.30;99.90
55083;DHT22;40978;52.850;6.506;2022-12-20T08:57:21;10.40;99.90
55083;DHT22;40978;52.850;6.506;2022-12-20T08:59:47;10.30;99.90
55083;DHT22;40978;52.850;6.506;2022-12-20T09:02:12;10.40;99.90
55083;DHT22;40978;52.850;6.506;2022-12-20T09:04:38;10.40;99.90
55083;DHT22;40978;52.850;6.506;2022-12-20T09:07:04;10.40;99.90
55083;DHT22;40978;52.850;6.506;2022-12-20T09:09:30;10.40;99.90
55083;DHT22;40978;52.850;6.506;2022-12-20T09:11:55;10.40;99.90
55083;DHT22;40978;52.850;6.506;2022-12-20T09:14:22;10.40;99.90
55083;DHT22;40978;52.850;6.506;2022-12-20T09:16:47;10.40;99.90
55083;DHT22;40978;52.850;6.506;2022-12-20T09:19:13;10.40;99.90
55083;DHT22;40978;52.850;6.506;2022-12-20T09:21:39;10.40;99.90
55083;DHT22;40978;52.850;6.506;2022-12-20T09:24:06;10.40;99.90
55083;DHT22;40978;52.850;6.506;2022-12-20T09:26:31;10.40;99.90
55083;DHT22;40978;52.850;6.506;2022-12-20T09:28:59;10.40;99.90
55083;DHT22;40978;52.850;6.506;2022-12-20T09:31:27;10.40;99.90
55083;DHT22;40978;52.850;6.506;2022-12-20T09:33:57;10.40;99.90
55083;DHT22;40978;52.850;6.506;2022-12-20T09:36:24;10.40;99.90
55083;DHT22;40978;52.850;6.506;2022-12-20T09:38:50;10.40;99.90
55083;DHT22;40978;52.850;6.506;2022-12-20T09:41:38;10.40;99.90
55083;DHT22;40978;52.850;6.506;2022-12-20T09:46:42;10.40;99.90
55083;DHT22;40978;52.850;6.506;2022-12-20T09:49:13;10.50;99.90
55083;DHT22;40978;52.850;6.506;2022-12-20T09:59:21;10.40;99.90
55083;DHT22;40978;52.850;6.506;2022-12-20T10:01:48;10.40;99.90
55083;DHT22;40978;52.850;6.506;2022-12-20T10:04:23;10.40;99.90
55083;DHT22;40978;52.850;6.506;2022-12-20T10:17:53;10.20;99.90
55083;DHT22;40978;52.850;6.506;2022-12-20T10:25:25;10.20;99.90
55083;DHT22;40978;52.850;6.506;2022-12-20T10:27:55;10.20;99.90
55083;DHT22;40978;52.850;6.506;2022-12-20T10:30:23;10.20;99.90
55083;DHT22;40978;52.850;6.506;2022-12-20T10:32:51;10.10;99.90
55083;DHT22;40978;52.850;6.506;2022-12-20T10:35:26;10.00;99.90
55083;DHT22;40978;52.850;6.506;2022-12-20T10:38:05;10.00;99.90
55083;DHT22;40978;52.850;6.506;2022-12-20T10:40:40;10.00;99.90
55083;DHT22;40978;52.850;6.506;2022-12-20T10:43:17;10.10;99.90
55083;DHT22;40978;52.850;6.506;2022-12-20T10:45:54;10.00;99.90
55083;DHT22;40978;52.850;6.506;2022-12-20T10:51:15;10.00;99.90
55083;DHT22;40978;52.850;6.506;2022-12-20T10:53:55;10.10;99.90
55083;DHT22;40978;52.850;6.506;2022-12-20T10:56:25;10.00;99.90
55083;DHT22;40978;52.850;6.506;2022-12-20T10:58:59;10.00;99.90
55083;DHT22;40978;52.850;6.506;2022-12-20T11:01:28;10.10;99.90
55083;DHT22;40978;52.850;6.506;2022-12-20T11:04:31;10.10;99.90
55083;DHT22;40978;52.850;6.506;2022-12-20T11:07:03;10.10;99.90
55083;DHT22;40978;52.850;6.506;2022-12-20T11:09:53;10.10;99.90
55083;DHT22;40978;52.850;6.506;2022-12-20T11:12:19;10.10;99.90
55083;DHT22;40978;52.850;6.506;2022-12-20T11:14:46;10.10;99.90
55083;DHT22;40978;52.850;6.506;2022-12-20T11:17:39;10.20;99.90
55083;DHT22;40978;52.850;6.506;2022-12-20T11:23:39;10.20;99.90
55083;DHT22;40978;52.850;6.506;2022-12-20T11:40:43;10.20;99.90
55083;DHT22;40978;52.850;6.506;2022-12-20T11:43:35;10.20;99.90
55083;DHT22;40978;52.850;6.506;2022-12-20T11:46:28;10.30;99.90
55083;DHT22;40978;52.850;6.506;2022-12-20T11:51:52;10.30;99.90
55083;DHT22;40978;52.850;6.506;2022-12-20T11:54:25;10.30;99.90
55083;DHT22;40978;52.850;6.506;2022-12-20T11:56:57;10.30;99.90
55083;DHT22;40978;52.850;6.506;2022-12-20T11:59:47;10.20;99.90
55083;DHT22;40978;52.850;6.506;2022-12-20T12:05:03;10.30;99.90
55083;DHT22;40978;52.850;6.506;2022-12-20T12:07:32;10.30;99.90
55083;DHT22;40978;52.850;6.506;2022-12-20T12:10:11;10.30;99.90
55083;DHT22;40978;52.850;6.506;2022-12-20T12:12:42;10.30;99.90
55083;DHT22;40978;52.850;6.506;2022-12-20T12:17:57;10.30;99.90
55083;DHT22;40978;52.850;6.506;2022-12-20T12:23:25;10.20;99.90
55083;DHT22;40978;52.850;6.506;2022-12-20T12:25:52;10.30;99.90
55083;DHT22;40978;52.850;6.506;2022-12-20T12:28:19;10.20;99.90
55083;DHT22;40978;52.850;6.506;2022-12-20T12:30:58;10.20;99.90
55083;DHT22;40978;52.850;6.506;2022-12-20T12:33:29;10.20;99.90
55083;DHT22;40978;52.850;6.506;2022-12-20T12:39:49;10.20;99.90
55083;DHT22;40978;52.850;6.506;2022-12-20T12:42:06;10.30;99.90
55083;DHT22;40978;52.850;6.506;2022-12-20T12:44:39;10.20;99.90
55083;DHT22;40978;52.850;6.506;2022-12-20T12:47:21;10.20;99.90
55083;DHT22;40978;52.850;6.506;2022-12-20T12:49:50;10.20;99.90
55083;DHT22;40978;52.850;6.506;2022-12-20T12:52:43;10.30;99.90
55083;DHT22;40978;52.850;6.506;2022-12-20T12:55:36;10.30;99.90
55083;DHT22;40978;52.850;6.506;2022-12-20T12:58:29;10.30;99.90
55083;DHT22;40978;52.850;6.506;2022-12-20T13:01:09;10.30;99.90
55083;DHT22;40978;52.850;6.506;2022-12-20T13:03:42;10.30;99.90
55083;DHT22;40978;52.850;6.506;2022-12-20T13:11:35;10.20;99.90
55083;DHT22;40978;52.850;6.506;2022-12-20T13:24:46;10.30;99.90
55083;DHT22;40978;52.850;6.506;2022-12-20T13:27:42;10.30;99.90
55083;DHT22;40978;52.850;6.506;2022-12-20T13:40:30;10.30;99.90
55083;DHT22;40978;52.850;6.506;2022-12-20T13:42:58;10.30;99.90
55083;DHT22;40978;52.850;6.506;2022-12-20T13:45:28;10.30;99.90
55083;DHT22;40978;52.850;6.506;2022-12-20T13:47:58;10.30;99.90
55083;DHT22;40978;52.850;6.506;2022-12-20T13:50:33;10.30;99.90
55083;DHT22;40978;52.850;6.506;2022-12-20T13:53:00;10.30;99.90
55083;DHT22;40978;52.850;6.506;2022-12-20T13:55:34;10.30;99.90
55083;DHT22;40978;52.850;6.506;2022-12-20T13:58:06;10.30;99.90
55083;DHT22;40978;52.850;6.506;2022-12-20T14:00:34;10.30;99.90
55083;DHT22;40978;52.850;6.506;2022-12-20T14:03:01;10.30;99.90
55083;DHT22;40978;52.850;6.506;2022-12-20T14:05:36;10.30;99.90
55083;DHT22;40978;52.850;6.506;2022-12-20T14:08:08;10.30;99.90
55083;DHT22;40978;52.850;6.506;2022-12-20T14:10:35;10.30;99.90
55083;DHT22;40978;52.850;6.506;2022-12-20T14:13:01;10.30;99.90
55083;DHT22;40978;52.850;6.506;2022-12-20T14:15:28;10.30;99.90
55083;DHT22;40978;52.850;6.506;2022-12-20T14:17:54;10.30;99.90
55083;DHT22;40978;52.850;6.506;2022-12-20T14:20:23;10.30;99.90
55083;DHT22;40978;52.850;6.506;2022-12-20T14:22:54;10.30;99.90
55083;DHT22;40978;52.850;6.506;2022-12-20T14:25:28;10.30;99.90
55083;DHT22;40978;52.850;6.506;2022-12-20T14:27:55;10.40;99.90
55083;DHT22;40978;52.850;6.506;2022-12-20T14:30:45;10.30;99.90
55083;DHT22;40978;52.850;6.506;2022-12-20T14:33:30;10.30;99.90
55083;DHT22;40978;52.850;6.506;2022-12-20T14:35:56;10.40;99.90
55083;DHT22;40978;52.850;6.506;2022-12-20T14:38:28;10.40;99.90
55083;DHT22;40978;52.850;6.506;2022-12-20T14:40:55;10.40;99.90
55083;DHT22;40978;52.850;6.506;2022-12-20T14:43:32;10.30;99.90
55083;DHT22;40978;52.850;6.506;2022-12-20T14:46:28;10.40;99.90
55083;DHT22;40978;52.850;6.506;2022-12-20T14:49:25;10.40;99.90
55083;DHT22;40978;52.850;6.506;2022-12-20T14:57:28;10.40;99.90
55083;DHT22;40978;52.850;6.506;2022-12-20T15:10:36;10.50;99.90
55083;DHT22;40978;52.850;6.506;2022-12-20T15:13:02;10.40;99.90
55083;DHT22;40978;52.850;6.506;2022-12-20T15:15:28;10.50;99.90
55083;DHT22;40978;52.850;6.506;2022-12-20T15:17:54;10.50;99.90
55083;DHT22;40978;52.850;6.506;2022-12-20T15:20:20;10.50;99.90
55083;DHT22;40978;52.850;6.506;2022-12-20T15:22:45;10.50;99.90
55083;DHT22;40978;52.850;6.506;2022-12-20T15:25:15;10.50;99.90
55083;DHT22;40978;52.850;6.506;2022-12-20T15:27:42;10.50;99.90
55083;DHT22;40978;52.850;6.506;2022-12-20T15:30:12;10.50;99.90
55083;DHT22;40978;52.850;6.506;2022-12-20T15:32:41;10.50;99.90
55083;DHT22;40978;52.850;6.506;2022-12-20T15:35:13;10.50;99.90
55083;DHT22;40978;52.850;6.506;2022-12-20T15:37:40;10.50;99.90
55083;DHT22;40978;52.850;6.506;2022-12-20T15:40:09;10.40;99.90
55083;DHT22;40978;52.850;6.506;2022-12-20T15:42:35;10.40;99.90
55083;DHT22;40978;52.850;6.506;2022-12-20T15:45:01;10.40;99.90
55083;DHT22;40978;52.850;6.506;2022-12-20T15:47:27;10.40;99.90
55083;DHT22;40978;52.850;6.506;2022-12-20T15:49:53;10.40;99.90
55083;DHT22;40978;52.850;6.506;2022-12-20T15:52:21;10.40;99.90
55083;DHT22;40978;52.850;6.506;2022-12-20T15:54:48;10.40;99.90
55083;DHT22;40978;52.850;6.506;2022-12-20T15:57:14;10.40;99.90
55083;DHT22;40978;52.850;6.506;2022-12-20T15:59:40;10.40;99.90
55083;DHT22;40978;52.850;6.506;2022-12-20T16:02:23;10.50;99.90
55083;DHT22;40978;52.850;6.506;2022-12-20T16:04:49;10.40;99.90
55083;DHT22;40978;52.850;6.506;2022-12-20T16:07:15;10.30;99.90
55083;DHT22;40978;52.850;6.506;2022-12-20T16:09:41;10.40;99.90
55083;DHT22;40978;52.850;6.506;2022-12-20T16:12:20;10.40;99.90
55083;DHT22;40978;52.850;6.506;2022-12-20T16:14:47;10.40;99.90
55083;DHT22;40978;52.850;6.506;2022-12-20T16:17:13;10.30;99.90
55083;DHT22;40978;52.850;6.506;2022-12-20T16:19:40;10.30;99.90
55083;DHT22;40978;52.850;6.506;2022-12-20T16:22:16;10.40;99.90
55083;DHT22;40978;52.850;6.506;2022-12-20T16:24:43;10.40;99.90
55083;DHT22;40978;52.850;6.506;2022-12-20T16:27:09;10.30;99.90
55083;DHT22;40978;52.850;6.506;2022-12-20T16:29:35;10.40;99.90
55083;DHT22;40978;52.850;6.506;2022-12-20T16:32:00;10.30;99.90
55083;DHT22;40978;52.850;6.506;2022-12-20T16:34:26;10.30;99.90
55083;DHT22;40978;52.850;6.506;2022-12-20T16:36:52;10.40;99.90
55083;DHT22;40978;52.850;6.506;2022-12-20T16:39:18;10.40;99.90
55083;DHT22;40978;52.850;6.506;2022-12-20T16:41:44;10.40;99.90
55083;DHT22;40978;52.850;6.506;2022-12-20T16:44:13;10.30;99.90
55083;DHT22;40978;52.850;6.506;2022-12-20T16:46:39;10.30;99.90
55083;DHT22;40978;52.850;6.506;2022-12-20T16:49:05;10.30;99.90
55083;DHT22;40978;52.850;6.506;2022-12-20T16:51:48;10.40;99.90
55083;DHT22;40978;52.850;6.506;2022-12-20T16:54:20;10.40;99.90
55083;DHT22;40978;52.850;6.506;2022-12-20T16:56:50;10.40;99.90
55083;DHT22;40978;52.850;6.506;2022-12-20T16:59:21;10.40;99.90
55083;DHT22;40978;52.850;6.506;2022-12-20T17:01:48;10.30;99.90
55083;DHT22;40978;52.850;6.506;2022-12-20T17:04:17;10.40;99.90
55083;DHT22;40978;52.850;6.506;2022-12-20T17:06:43;10.40;99.90
55083;DHT22;40978;52.850;6.506;2022-12-20T17:09:10;10.40;99.90
55083;DHT22;40978;52.850;6.506;2022-12-20T17:11:36;10.40;99.90
55083;DHT22;40978;52.850;6.506;2022-12-20T17:14:02;10.30;99.90
55083;DHT22;40978;52.850;6.506;2022-12-20T17:16:28;10.40;99.90
55083;DHT22;40978;52.850;6.506;2022-12-20T17:18:55;10.40;99.90
55083;DHT22;40978;52.850;6.506;2022-12-20T17:23:48;10.30;99.90
55083;DHT22;40978;52.850;6.506;2022-12-20T17:26:16;10.40;99.90
55083;DHT22;40978;52.850;6.506;2022-12-20T17:28:42;10.40;99.90
55083;DHT22;40978;52.850;6.506;2022-12-20T17:31:24;10.30;99.90
55083;DHT22;40978;52.850;6.506;2022-12-20T17:33:51;10.30;99.90
55083;DHT22;40978;52.850;6.506;2022-12-20T17:36:17;10.40;99.90
55083;DHT22;40978;52.850;6.506;2022-12-20T17:38:43;10.30;99.90
55083;DHT22;40978;52.850;6.506;2022-12-20T17:43:51;10.40;99.90
55083;DHT22;40978;52.850;6.506;2022-12-20T17:46:17;10.30;99.90
55083;DHT22;40978;52.850;6.506;2022-12-20T17:48:43;10.30;99.90
55083;DHT22;40978;52.850;6.506;2022-12-20T17:51:19;10.40;99.90
55083;DHT22;40978;52.850;6.506;2022-12-20T17:53:46;10.40;99.90
55083;DHT22;40978;52.850;6.506;2022-12-20T17:56:16;10.30;99.90